Time;durP1;ratioP1;P1;durP2;ratioP2;P2;SDS_P1;SDS_P2;PMS_P1;PMS_P2;Temp;Humidity;BMP_temperature;BMP_pressure;BME280_temperature;BME280_humidity;BME280_pressure;Samples;Min_cycle;Max_cycle;Signal;HPM_P1;HPM_P2
2023/10/18 00:01:05;;;;;;;6.68;3.33;;;;;;;;;;5005109;28;20037;-75
2023/10/18 00:03:32;;;;;;;9.23;3.70;;;;;;;;;;5005301;28;20034;-74
2023/10/18 00:06:32;;;;;;;8.90;3.35;;;;;;;;;;5003830;28;20136;-75
2023/10/18 00:08:57;;;;;;;9.15;3.65;;;;;;;;;;5002235;28;20038;-74
2023/10/18 00:11:24;;;;;;;10.23;3.60;;;;;;;;;;5005639;28;20038;-74
2023/10/18 00:13:52;;;;;;;8.00;3.50;;;;;;;;;;5004508;28;20576;-75
2023/10/18 00:16:18;;;;;;;5.22;3.10;;;;;;;;;;5006057;28;20034;-74
2023/10/18 00:18:43;;;;;;;9.23;3.35;;;;;;;;;;5005336;28;20483;-74
2023/10/18 00:21:09;;;;;;;7.18;3.33;;;;;;;;;;5003155;28;20042;-74
2023/10/18 00:23:34;;;;;;;8.90;3.60;;;;;;;;;;5005430;28;20071;-75
2023/10/18 00:26:04;;;;;;;7.40;3.47;;;;;;;;;;5004969;28;20572;-75
2023/10/18 00:28:31;;;;;;;9.95;4.53;;;;;;;;;;5005667;28;20025;-75
2023/10/18 00:30:57;;;;;;;12.43;4.95;;;;;;;;;;5006848;28;20109;-74
2023/10/18 00:33:22;;;;;;;8.07;4.05;;;;;;;;;;5009153;28;20069;-74
2023/10/18 00:35:47;;;;;;;7.25;3.67;;;;;;;;;;5017465;28;20042;-75
2023/10/18 00:38:18;;;;;;;7.70;3.70;;;;;;;;;;5010300;28;20050;-74
2023/10/18 00:40:45;;;;;;;6.53;3.72;;;;;;;;;;5004974;28;20034;-74
2023/10/18 00:43:22;;;;;;;8.63;3.95;;;;;;;;;;5004670;28;20022;-74
2023/10/18 00:45:50;;;;;;;7.82;3.50;;;;;;;;;;5004851;28;20121;-74
2023/10/18 00:48:29;;;;;;;5.32;3.53;;;;;;;;;;5004494;28;20061;-74
2023/10/18 00:50:57;;;;;;;8.60;3.90;;;;;;;;;;5004644;28;20121;-74
2023/10/18 00:53:24;;;;;;;7.00;3.55;;;;;;;;;;5004462;28;20042;-75
2023/10/18 00:55:57;;;;;;;7.78;3.47;;;;;;;;;;5004374;28;20127;-74
2023/10/18 00:58:24;;;;;;;8.40;3.58;;;;;;;;;;5004989;28;20041;-74
2023/10/18 01:00:51;;;;;;;7.10;3.33;;;;;;;;;;5004273;28;20136;-74
2023/10/18 01:03:28;;;;;;;6.93;3.60;;;;;;;;;;5002753;28;20034;-74
2023/10/18 01:05:59;;;;;;;4.97;3.17;;;;;;;;;;5004333;28;20065;-74
2023/10/18 01:08:25;;;;;;;6.13;3.35;;;;;;;;;;5003761;28;20041;-75
2023/10/18 01:10:54;;;;;;;8.73;3.65;;;;;;;;;;5008171;28;20974;-75
2023/10/18 01:13:20;;;;;;;7.85;3.90;;;;;;;;;;5006773;28;20045;-75
2023/10/18 01:15:48;;;;;;;6.88;3.67;;;;;;;;;;5008286;28;20092;-75
2023/10/18 01:18:13;;;;;;;6.35;3.63;;;;;;;;;;5008041;28;20148;-74
2023/10/18 01:20:40;;;;;;;6.57;3.60;;;;;;;;;;5008097;28;20512;-75
2023/10/18 01:23:07;;;;;;;6.65;3.35;;;;;;;;;;5006554;28;20548;-74
2023/10/18 01:25:34;;;;;;;8.63;3.42;;;;;;;;;;5006631;28;20037;-75
2023/10/18 01:27:59;;;;;;;6.78;3.53;;;;;;;;;;5023877;28;20034;-74
2023/10/18 01:30:24;;;;;;;6.72;3.25;;;;;;;;;;5007863;28;20034;-74
2023/10/18 01:32:51;;;;;;;8.48;3.42;;;;;;;;;;5006612;28;20030;-74
2023/10/18 01:35:16;;;;;;;6.47;3.65;;;;;;;;;;5006394;28;20029;-75
2023/10/18 01:37:43;;;;;;;8.77;3.88;;;;;;;;;;5007694;28;20500;-74
2023/10/18 01:42:56;;;;;;;5.05;3.22;;;;;;;;;;5005007;28;20034;-75
2023/10/18 01:45:22;;;;;;;8.10;3.88;;;;;;;;;;5008618;28;20137;-75
2023/10/18 01:47:49;;;;;;;6.68;3.83;;;;;;;;;;5008070;28;20095;-74
2023/10/18 01:50:15;;;;;;;5.60;3.25;;;;;;;;;;5008414;28;20109;-74
2023/10/18 01:52:42;;;;;;;5.93;3.22;;;;;;;;;;5009589;28;20022;-74
2023/10/18 01:55:12;;;;;;;8.55;3.90;;;;;;;;;;5034757;28;20022;-75
2023/10/18 01:57:42;;;;;;;6.57;3.53;;;;;;;;;;5022761;28;20512;-74
2023/10/18 02:00:20;;;;;;;6.78;3.35;;;;;;;;;;5010427;28;20038;-75
2023/10/18 02:02:48;;;;;;;6.80;3.75;;;;;;;;;;5008642;28;20030;-74
2023/10/18 02:05:15;;;;;;;6.65;3.28;;;;;;;;;;5005818;28;20037;-74
2023/10/18 02:07:42;;;;;;;9.25;3.63;;;;;;;;;;5007752;28;20524;-74
2023/10/18 02:10:07;;;;;;;7.60;3.50;;;;;;;;;;5008025;28;20025;-75
2023/10/18 02:12:36;;;;;;;7.13;3.95;;;;;;;;;;5007455;28;20041;-74
2023/10/18 02:15:04;;;;;;;5.97;3.58;;;;;;;;;;5007332;28;20556;-74
2023/10/18 02:17:32;;;;;;;7.47;3.65;;;;;;;;;;5005957;28;20060;-74
2023/10/18 02:20:00;;;;;;;7.57;3.80;;;;;;;;;;5005144;28;20386;-75
2023/10/18 02:22:27;;;;;;;8.27;3.80;;;;;;;;;;5005496;28;20040;-75
2023/10/18 02:24:53;;;;;;;7.30;3.33;;;;;;;;;;5007334;28;20039;-74
2023/10/18 02:27:19;;;;;;;7.82;3.90;;;;;;;;;;5005305;28;20048;-75
2023/10/18 02:29:46;;;;;;;11.13;4.90;;;;;;;;;;5005670;28;20030;-74
2023/10/18 02:32:31;;;;;;;11.20;4.63;;;;;;;;;;5005821;28;20044;-74
2023/10/18 02:34:57;;;;;;;9.80;4.40;;;;;;;;;;5005611;28;20064;-75
2023/10/18 02:37:24;;;;;;;8.15;4.30;;;;;;;;;;5007417;28;20076;-75
2023/10/18 02:39:51;;;;;;;7.82;4.10;;;;;;;;;;5005268;28;20041;-75
2023/10/18 02:42:18;;;;;;;8.60;3.97;;;;;;;;;;5006730;28;20544;-75
2023/10/18 02:44:44;;;;;;;8.57;4.22;;;;;;;;;;5006973;28;20537;-74
2023/10/18 02:47:16;;;;;;;7.82;4.07;;;;;;;;;;5002035;28;20030;-75
2023/10/18 02:49:45;;;;;;;8.57;4.25;;;;;;;;;;4986862;28;20037;-74
2023/10/18 02:52:15;;;;;;;7.28;3.60;;;;;;;;;;4987288;28;20053;-74
2023/10/18 02:54:41;;;;;;;6.28;3.63;;;;;;;;;;4990545;28;20033;-75
2023/10/18 02:57:06;;;;;;;7.00;3.70;;;;;;;;;;5003112;28;20953;-75
2023/10/18 02:59:32;;;;;;;8.13;4.10;;;;;;;;;;5006035;28;20216;-74
2023/10/18 03:02:01;;;;;;;8.00;3.60;;;;;;;;;;5005180;28;20029;-74
2023/10/18 03:04:28;;;;;;;10.30;3.63;;;;;;;;;;5005458;28;20029;-75
2023/10/18 03:06:54;;;;;;;6.60;3.80;;;;;;;;;;5004862;28;20116;-74
2023/10/18 03:09:41;;;;;;;7.97;3.63;;;;;;;;;;5006533;28;20036;-75
2023/10/18 03:12:15;;;;;;;7.93;4.10;;;;;;;;;;5006437;28;20069;-75
2023/10/18 03:14:53;;;;;;;8.90;4.05;;;;;;;;;;5010388;28;20042;-74
2023/10/18 03:17:22;;;;;;;5.35;3.60;;;;;;;;;;5034273;28;20030;-75
2023/10/18 03:19:51;;;;;;;8.63;3.92;;;;;;;;;;5017618;28;20089;-74
2023/10/18 03:22:22;;;;;;;7.90;4.00;;;;;;;;;;5000031;28;20022;-75
2023/10/18 03:24:48;;;;;;;9.18;3.67;;;;;;;;;;5006152;28;20593;-75
2023/10/18 03:27:14;;;;;;;6.38;3.45;;;;;;;;;;5005649;28;20049;-75
2023/10/18 03:29:43;;;;;;;8.27;3.47;;;;;;;;;;5004264;28;20037;-75
2023/10/18 03:32:14;;;;;;;8.65;4.03;;;;;;;;;;5004695;28;20083;-75
2023/10/18 03:34:41;;;;;;;9.98;4.28;;;;;;;;;;5005929;28;20021;-74
2023/10/18 03:37:18;;;;;;;7.63;3.97;;;;;;;;;;5005927;28;20050;-74
2023/10/18 03:39:45;;;;;;;7.43;3.50;;;;;;;;;;5020591;28;20052;-75
2023/10/18 03:42:26;;;;;;;6.03;3.55;;;;;;;;;;5003886;28;20045;-74
2023/10/18 03:44:51;;;;;;;6.63;3.53;;;;;;;;;;5005731;28;20044;-74
2023/10/18 03:47:24;;;;;;;8.88;3.53;;;;;;;;;;5003944;28;20045;-74
2023/10/18 03:49:53;;;;;;;8.07;3.75;;;;;;;;;;5003960;28;20040;-74
2023/10/18 03:52:18;;;;;;;7.03;3.72;;;;;;;;;;5006161;28;20029;-74
2023/10/18 03:54:45;;;;;;;7.95;3.35;;;;;;;;;;5003603;28;20045;-75
2023/10/18 03:57:17;;;;;;;6.85;3.60;;;;;;;;;;5004936;28;20064;-75
2023/10/18 03:59:45;;;;;;;8.38;4.10;;;;;;;;;;5005313;28;20556;-74
2023/10/18 04:02:27;;;;;;;7.28;3.60;;;;;;;;;;5005328;28;20077;-75
2023/10/18 04:05:13;;;;;;;10.52;3.78;;;;;;;;;;5003168;28;20057;-74
2023/10/18 04:07:38;;;;;;;10.95;4.22;;;;;;;;;;5005140;28;20030;-74
2023/10/18 04:10:24;;;;;;;7.13;3.78;;;;;;;;;;5004385;28;20460;-74
2023/10/18 04:12:50;;;;;;;7.22;3.97;;;;;;;;;;5005511;28;20038;-74
2023/10/18 04:15:22;;;;;;;5.90;3.25;;;;;;;;;;5005064;28;20421;-75
2023/10/18 04:18:03;;;;;;;7.18;3.40;;;;;;;;;;5004798;28;20033;-74
2023/10/18 04:20:34;;;;;;;6.38;3.20;;;;;;;;;;5005596;28;20033;-74
2023/10/18 04:23:00;;;;;;;6.82;3.80;;;;;;;;;;5004799;28;20448;-74
2023/10/18 04:25:32;;;;;;;8.23;3.72;;;;;;;;;;5005589;28;20022;-74
2023/10/18 04:27:58;;;;;;;9.02;4.10;;;;;;;;;;5004187;28;20065;-74
2023/10/18 04:30:30;;;;;;;9.55;3.40;;;;;;;;;;5004023;28;20054;-75
2023/10/18 04:33:00;;;;;;;10.25;4.20;;;;;;;;;;5006703;28;20669;-75
2023/10/18 04:35:29;;;;;;;10.18;3.45;;;;;;;;;;5011400;28;20058;-74
2023/10/18 04:37:58;;;;;;;7.40;3.58;;;;;;;;;;5022063;28;20038;-74
2023/10/18 04:40:26;;;;;;;7.43;3.75;;;;;;;;;;5013977;28;20028;-75
2023/10/18 04:42:54;;;;;;;5.65;3.42;;;;;;;;;;5008707;28;20517;-75
2023/10/18 04:45:23;;;;;;;9.88;3.85;;;;;;;;;;5008069;28;20037;-75
2023/10/18 04:47:57;;;;;;;8.80;3.67;;;;;;;;;;5008090;28;20588;-74
2023/10/18 04:50:29;;;;;;;7.95;3.78;;;;;;;;;;5009334;28;20034;-74
2023/10/18 04:52:58;;;;;;;7.35;3.40;;;;;;;;;;4993765;28;20093;-74
2023/10/18 04:55:25;;;;;;;6.70;3.72;;;;;;;;;;4989357;28;20084;-75
2023/10/18 04:57:53;;;;;;;9.30;4.03;;;;;;;;;;5015401;28;20057;-75
2023/10/18 05:00:25;;;;;;;7.20;3.58;;;;;;;;;;5028323;28;20026;-74
2023/10/18 05:02:58;;;;;;;9.60;4.40;;;;;;;;;;5010170;28;20553;-74
2023/10/18 05:05:27;;;;;;;8.82;4.38;;;;;;;;;;5010833;28;20037;-74
2023/10/18 05:07:55;;;;;;;9.57;3.88;;;;;;;;;;5027895;28;20036;-75
2023/10/18 05:10:21;;;;;;;8.07;3.53;;;;;;;;;;5010330;28;20041;-75
2023/10/18 05:13:07;;;;;;;10.60;3.45;;;;;;;;;;5028492;28;20794;-74
2023/10/18 05:15:32;;;;;;;6.75;3.47;;;;;;;;;;5004921;28;20042;-74
2023/10/18 05:18:04;;;;;;;10.85;3.75;;;;;;;;;;4990126;28;20045;-74
2023/10/18 05:23:19;;;;;;;8.13;3.63;;;;;;;;;;5015998;28;20072;-75
2023/10/18 05:25:45;;;;;;;7.15;4.15;;;;;;;;;;5027963;28;20075;-75
2023/10/18 05:43:59;;;;;;;9.32;4.45;;;;;;;;;;5027601;28;20033;-75
2023/10/18 05:46:29;;;;;;;7.28;4.20;;;;;;;;;;5027861;28;20052;-75
2023/10/18 05:48:57;;;;;;;9.57;4.20;;;;;;;;;;5010204;28;20125;-75
2023/10/18 05:51:26;;;;;;;7.57;4.22;;;;;;;;;;5009619;28;20585;-75
2023/10/18 05:53:58;;;;;;;9.57;4.63;;;;;;;;;;5006735;28;20585;-75
2023/10/18 05:56:29;;;;;;;6.82;4.25;;;;;;;;;;5026176;28;20045;-75
2023/10/18 06:01:47;;;;;;;10.07;4.43;;;;;;;;;;5021445;28;20090;-74
2023/10/18 06:04:13;;;;;;;10.50;4.47;;;;;;;;;;5027787;28;20485;-75
2023/10/18 06:06:39;;;;;;;9.35;4.00;;;;;;;;;;5026776;28;20038;-74
2023/10/18 06:09:11;;;;;;;8.45;4.40;;;;;;;;;;5026974;28;20098;-74
2023/10/18 06:11:37;;;;;;;10.05;4.70;;;;;;;;;;5014565;28;20492;-75
2023/10/18 06:14:05;;;;;;;6.47;3.58;;;;;;;;;;5007010;28;20038;-74
2023/10/18 06:16:34;;;;;;;9.50;4.30;;;;;;;;;;5005899;28;20025;-75
2023/10/18 06:19:02;;;;;;;10.98;4.35;;;;;;;;;;4989475;28;20022;-75
2023/10/18 06:21:35;;;;;;;6.15;3.90;;;;;;;;;;5002159;28;20432;-75
2023/10/18 06:24:08;;;;;;;10.27;4.30;;;;;;;;;;5006758;28;20061;-75
2023/10/18 06:26:34;;;;;;;9.88;3.80;;;;;;;;;;5006639;28;20053;-75
2023/10/18 06:29:01;;;;;;;7.75;3.78;;;;;;;;;;5006432;28;20100;-74
2023/10/18 06:31:30;;;;;;;7.82;3.83;;;;;;;;;;5001064;28;20021;-75
2023/10/18 06:33:57;;;;;;;8.63;4.50;;;;;;;;;;5022036;28;20041;-74
2023/10/18 06:36:24;;;;;;;7.47;3.83;;;;;;;;;;5024526;28;20029;-74
2023/10/18 06:38:53;;;;;;;7.40;3.83;;;;;;;;;;5026480;28;20041;-74
2023/10/18 06:41:18;;;;;;;10.45;3.83;;;;;;;;;;5025331;28;20061;-74
2023/10/18 06:43:45;;;;;;;7.18;3.83;;;;;;;;;;5008101;28;20053;-74
2023/10/18 06:46:27;;;;;;;9.55;3.85;;;;;;;;;;5026723;28;20036;-75
2023/10/18 06:49:01;;;;;;;6.90;3.55;;;;;;;;;;5026354;28;20149;-74
2023/10/18 06:51:33;;;;;;;6.03;3.50;;;;;;;;;;5026464;28;20038;-75
2023/10/18 06:54:06;;;;;;;6.67;3.97;;;;;;;;;;5025994;28;20044;-74
2023/10/18 06:56:32;;;;;;;8.25;3.80;;;;;;;;;;5025832;28;20452;-74
2023/10/18 06:59:04;;;;;;;7.28;3.85;;;;;;;;;;5026363;28;20036;-75
2023/10/18 07:01:31;;;;;;;7.82;4.30;;;;;;;;;;4989422;28;20029;-74
2023/10/18 07:03:56;;;;;;;6.50;3.55;;;;;;;;;;5006165;28;20049;-74
2023/10/18 07:06:29;;;;;;;9.00;3.83;;;;;;;;;;5008862;28;20657;-74
2023/10/18 07:08:55;;;;;;;8.15;3.63;;;;;;;;;;5005862;28;20160;-74
2023/10/18 07:11:23;;;;;;;7.20;3.75;;;;;;;;;;5006310;28;20081;-74
2023/10/18 07:13:50;;;;;;;5.78;3.30;;;;;;;;;;5005856;28;20030;-74
2023/10/18 07:19:24;;;;;;;6.18;3.60;;;;;;;;;;5025477;28;20551;-75
2023/10/18 07:21:51;;;;;;;6.50;3.33;;;;;;;;;;5034974;28;20063;-74
2023/10/18 07:24:20;;;;;;;5.65;3.30;;;;;;;;;;5008575;28;20037;-74
2023/10/18 07:26:47;;;;;;;7.30;3.70;;;;;;;;;;5004775;28;20393;-74
2023/10/18 07:29:16;;;;;;;9.75;3.65;;;;;;;;;;5004460;28;20065;-74
2023/10/18 07:31:44;;;;;;;8.20;3.70;;;;;;;;;;5004406;28;20048;-75
2023/10/18 07:34:17;;;;;;;7.18;3.72;;;;;;;;;;5007546;28;20048;-74
2023/10/18 07:36:46;;;;;;;8.98;3.70;;;;;;;;;;5025906;28;20116;-74
2023/10/18 07:39:12;;;;;;;9.65;3.55;;;;;;;;;;5008394;28;20064;-75
2023/10/18 07:41:40;;;;;;;10.20;3.83;;;;;;;;;;5005872;28;20048;-75
2023/10/18 07:44:06;;;;;;;7.85;3.40;;;;;;;;;;5005326;28;20591;-75
2023/10/18 07:46:44;;;;;;;6.45;3.70;;;;;;;;;;5019286;28;20021;-75
2023/10/18 07:49:13;;;;;;;7.68;3.58;;;;;;;;;;5008219;28;20064;-74
2023/10/18 07:51:56;;;;;;;12.18;4.22;;;;;;;;;;5007484;28;20575;-75
2023/10/18 07:54:22;;;;;;;8.27;4.00;;;;;;;;;;5024475;28;20044;-74
2023/10/18 07:56:54;;;;;;;8.38;4.03;;;;;;;;;;5007223;28;20288;-74
2023/10/18 07:59:27;;;;;;;6.47;3.88;;;;;;;;;;5024100;28;20038;-74
2023/10/18 08:02:07;;;;;;;7.90;3.80;;;;;;;;;;5004435;28;20232;-74
2023/10/18 08:04:37;;;;;;;7.93;3.70;;;;;;;;;;5004257;28;20014;-75
2023/10/18 08:07:04;;;;;;;14.23;4.25;;;;;;;;;;5005230;28;20018;-75
2023/10/18 08:09:29;;;;;;;8.27;4.30;;;;;;;;;;5005360;28;20041;-74
2023/10/18 08:12:08;;;;;;;9.38;4.25;;;;;;;;;;5005446;28;20504;-74
2023/10/18 08:14:34;;;;;;;7.20;3.67;;;;;;;;;;5004900;28;20034;-74
2023/10/18 08:17:09;;;;;;;9.57;4.10;;;;;;;;;;5004873;28;20038;-74
2023/10/18 08:20:17;;;;;;;6.82;3.47;;;;;;;;;;5004911;28;20117;-74
2023/10/18 08:22:27;;;;;;;8.45;3.90;;;;;;;;;;5002892;28;20109;-74
2023/10/18 08:24:52;;;;;;;8.80;4.00;;;;;;;;;;5003610;28;20038;-74
2023/10/18 08:27:18;;;;;;;8.20;4.07;;;;;;;;;;5004981;28;20041;-75
2023/10/18 08:29:47;;;;;;;7.20;4.25;;;;;;;;;;5003956;28;20621;-74
2023/10/18 08:32:15;;;;;;;6.55;3.95;;;;;;;;;;5005295;28;20121;-74
2023/10/18 08:34:44;;;;;;;8.50;3.85;;;;;;;;;;5006943;28;20120;-75
2023/10/18 08:37:16;;;;;;;7.55;3.80;;;;;;;;;;5028397;28;20021;-74
2023/10/18 08:39:52;;;;;;;8.85;4.15;;;;;;;;;;5036974;28;20108;-75
2023/10/18 08:42:24;;;;;;;6.75;3.55;;;;;;;;;;5026772;28;20095;-74
2023/10/18 08:44:55;;;;;;;9.25;3.50;;;;;;;;;;5024154;28;20056;-75
2023/10/18 08:47:29;;;;;;;11.00;4.10;;;;;;;;;;5024495;28;20662;-74
2023/10/18 08:49:56;;;;;;;10.45;3.50;;;;;;;;;;5024353;28;20059;-74
2023/10/18 08:52:28;;;;;;;12.48;3.97;;;;;;;;;;5025227;28;20033;-74
2023/10/18 08:54:55;;;;;;;5.75;2.97;;;;;;;;;;5024700;28;20033;-74
2023/10/18 08:57:36;;;;;;;7.63;3.45;;;;;;;;;;5023624;28;20050;-74
2023/10/18 09:00:19;;;;;;;9.73;3.28;;;;;;;;;;5018397;28;20042;-74
2023/10/18 09:02:50;;;;;;;7.25;3.28;;;;;;;;;;4987430;28;20085;-74
2023/10/18 09:05:16;;;;;;;6.80;3.20;;;;;;;;;;4987308;28;20116;-74
2023/10/18 09:07:45;;;;;;;6.00;3.13;;;;;;;;;;5004330;28;20029;-74
2023/10/18 09:16:01;;;;;;;8.35;4.13;;;;;;;;;;5004319;28;20034;-74
2023/10/18 09:18:14;;;;;;;7.43;3.95;;;;;;;;;;5001183;28;20038;-74
2023/10/18 09:20:39;;;;;;;7.60;4.03;;;;;;;;;;4987026;28;20638;-74
2023/10/18 09:23:14;;;;;;;10.27;3.80;;;;;;;;;;5004171;28;20464;-74
2023/10/18 09:25:49;;;;;;;12.98;3.85;;;;;;;;;;4986417;28;20021;-74
2023/10/18 09:28:21;;;;;;;6.35;3.67;;;;;;;;;;5004857;28;20328;-74
2023/10/18 09:30:46;;;;;;;7.38;3.70;;;;;;;;;;5008065;28;20034;-75
2023/10/18 09:33:13;;;;;;;7.68;3.22;;;;;;;;;;5008382;28;20048;-74
2023/10/18 09:35:39;;;;;;;8.35;3.67;;;;;;;;;;4990267;28;20113;-74
2023/10/18 09:38:07;;;;;;;7.85;3.33;;;;;;;;;;5007836;28;20034;-75
2023/10/18 09:40:36;;;;;;;10.93;3.80;;;;;;;;;;5006768;28;20024;-74
2023/10/18 09:43:02;;;;;;;5.93;3.05;;;;;;;;;;4990861;28;20072;-75
2023/10/18 09:45:28;;;;;;;5.85;3.45;;;;;;;;;;4990294;28;20528;-74
2023/10/18 09:47:58;;;;;;;5.35;2.95;;;;;;;;;;5008485;28;20881;-74
2023/10/18 09:50:28;;;;;;;8.60;3.20;;;;;;;;;;5008953;28;20038;-74
2023/10/18 09:52:59;;;;;;;4.78;2.65;;;;;;;;;;5027484;28;20033;-74
2023/10/18 09:55:28;;;;;;;6.22;2.70;;;;;;;;;;5030458;28;20044;-74
2023/10/18 09:58:04;;;;;;;8.27;2.85;;;;;;;;;;5038636;28;20317;-74
2023/10/18 10:00:50;;;;;;;5.20;2.70;;;;;;;;;;5034155;28;20555;-73
2023/10/18 10:03:27;;;;;;;6.90;2.33;;;;;;;;;;4992089;28;20149;-74
2023/10/18 10:05:52;;;;;;;5.13;2.78;;;;;;;;;;5021755;28;20037;-74
2023/10/18 10:08:19;;;;;;;5.80;2.58;;;;;;;;;;5027469;28;20409;-73
2023/10/18 10:10:45;;;;;;;5.22;2.63;;;;;;;;;;4998119;28;20028;-73
2023/10/18 10:13:19;;;;;;;6.40;2.50;;;;;;;;;;5019200;28;20149;-73
2023/10/18 10:16:03;;;;;;;5.18;2.67;;;;;;;;;;5001978;28;20034;-74
2023/10/18 10:18:32;;;;;;;5.25;2.17;;;;;;;;;;5006536;28;20034;-74
2023/10/18 10:21:00;;;;;;;4.40;2.58;;;;;;;;;;5010494;28;20033;-74
2023/10/18 10:23:26;;;;;;;6.63;2.13;;;;;;;;;;5025176;28;20065;-74
2023/10/18 10:26:22;;;;;;;3.17;2.20;;;;;;;;;;5025864;28;20481;-74
2023/10/18 10:31:55;;;;;;;8.15;2.08;;;;;;;;;;5025114;28;20083;-74
2023/10/18 10:34:32;;;;;;;5.30;2.60;;;;;;;;;;5014127;28;20070;-74
2023/10/18 10:37:18;;;;;;;3.55;2.38;;;;;;;;;;5004559;28;20053;-74
2023/10/18 10:39:45;;;;;;;5.72;2.60;;;;;;;;;;5021553;28;20524;-73
2023/10/18 10:42:44;;;;;;;6.57;2.58;;;;;;;;;;5008081;28;20527;-74
2023/10/18 10:47:46;;;;;;;5.70;2.78;;;;;;;;;;5020659;28;20145;-75
2023/10/18 10:50:42;;;;;;;5.40;2.60;;;;;;;;;;5014546;28;20084;-75
2023/10/18 10:53:08;;;;;;;8.07;2.58;;;;;;;;;;5004836;28;20045;-74
2023/10/18 10:55:34;;;;;;;3.72;2.50;;;;;;;;;;5005793;28;20091;-74
2023/10/18 10:58:15;;;;;;;6.20;2.78;;;;;;;;;;5012420;28;20098;-74
2023/10/18 11:01:04;;;;;;;5.15;2.70;;;;;;;;;;5020675;28;20037;-74
2023/10/18 11:03:55;;;;;;;5.68;2.65;;;;;;;;;;5014244;28;20045;-74
2023/10/18 11:06:24;;;;;;;5.05;2.58;;;;;;;;;;5018987;28;20041;-74
2023/10/18 11:08:53;;;;;;;5.20;2.42;;;;;;;;;;5005794;28;20041;-74
2023/10/18 11:11:26;;;;;;;5.55;2.38;;;;;;;;;;5005030;28;20113;-74
2023/10/18 11:13:52;;;;;;;4.35;2.88;;;;;;;;;;5023692;28;20612;-74
2023/10/18 11:16:20;;;;;;;6.43;2.70;;;;;;;;;;5032145;28;20049;-74
2023/10/18 11:18:48;;;;;;;5.03;2.40;;;;;;;;;;5021164;28;20044;-74
2023/10/18 11:21:19;;;;;;;8.45;2.38;;;;;;;;;;5030676;28;20038;-74
2023/10/18 11:24:02;;;;;;;3.60;2.20;;;;;;;;;;5007585;28;20044;-74
2023/10/18 11:26:28;;;;;;;;;;;;;;;;;;5025622;28;20025;-74
2023/10/18 11:28:59;;;;;;;7.15;2.15;;;;;;;;;;5007160;28;19977;-74
2023/10/18 11:31:28;;;;;;;4.05;2.20;;;;;;;;;;5025862;28;20045;-74
2023/10/18 11:34:04;;;;;;;6.35;2.50;;;;;;;;;;4993443;28;20056;-74
2023/10/18 11:36:32;;;;;;;6.38;2.67;;;;;;;;;;5004762;28;20045;-76
2023/10/18 11:41:44;;;;;;;3.72;2.22;;;;;;;;;;5004492;28;20554;-77
2023/10/18 11:44:14;;;;;;;5.80;2.88;;;;;;;;;;5015309;28;20716;-77
2023/10/18 11:47:00;;;;;;;6.03;2.40;;;;;;;;;;5023795;28;20033;-76
2023/10/18 11:49:36;;;;;;;4.40;2.15;;;;;;;;;;5006922;28;20029;-74
2023/10/18 11:52:01;;;;;;;4.30;2.13;;;;;;;;;;5023872;28;20049;-74
2023/10/18 11:54:34;;;;;;;4.07;2.38;;;;;;;;;;5024238;28;20570;-74
2023/10/18 11:57:01;;;;;;;3.70;2.33;;;;;;;;;;5003359;28;20056;-74
2023/10/18 11:59:31;;;;;;;5.90;2.38;;;;;;;;;;4986711;28;20113;-74
2023/10/18 12:01:58;;;;;;;6.03;2.45;;;;;;;;;;5003538;28;20133;-74
2023/10/18 12:04:28;;;;;;;7.75;2.30;;;;;;;;;;5005178;28;20061;-74
2023/10/18 12:06:56;;;;;;;6.75;2.78;;;;;;;;;;5003782;28;20046;-74
2023/10/18 12:11:53;;;;;;;6.65;2.20;;;;;;;;;;4996023;28;20038;-74
2023/10/18 12:14:18;;;;;;;4.93;2.08;;;;;;;;;;4998814;28;20042;-74
2023/10/18 12:16:44;;;;;;;4.15;2.60;;;;;;;;;;5003736;28;20025;-74
2023/10/18 12:19:10;;;;;;;3.40;2.20;;;;;;;;;;5004780;28;20519;-74
2023/10/18 12:21:39;;;;;;;3.95;2.25;;;;;;;;;;5004153;28;20049;-74
2023/10/18 12:24:07;;;;;;;8.00;2.63;;;;;;;;;;5005228;28;20456;-74
2023/10/18 12:26:37;;;;;;;3.35;1.55;;;;;;;;;;5003101;28;20072;-74
2023/10/18 12:29:05;;;;;;;3.00;2.00;;;;;;;;;;5002687;28;20049;-75
2023/10/18 12:31:41;;;;;;;4.38;2.30;;;;;;;;;;4991853;28;20068;-74
2023/10/18 12:34:08;;;;;;;3.75;2.00;;;;;;;;;;4997900;28;20026;-74
2023/10/18 12:36:38;;;;;;;5.60;2.38;;;;;;;;;;4996735;28;20073;-74
2023/10/18 12:39:09;;;;;;;4.07;1.90;;;;;;;;;;5022004;28;20042;-74
2023/10/18 12:41:39;;;;;;;4.70;2.30;;;;;;;;;;5010337;28;20033;-74
2023/10/18 12:44:10;;;;;;;4.55;1.95;;;;;;;;;;5006372;28;20033;-74
2023/10/18 12:46:36;;;;;;;5.63;1.98;;;;;;;;;;5005139;28;20037;-74
2023/10/18 12:49:10;;;;;;;6.28;2.40;;;;;;;;;;5005502;28;20057;-73
2023/10/18 12:51:40;;;;;;;5.27;2.30;;;;;;;;;;5004157;28;20691;-74
2023/10/18 12:54:08;;;;;;;3.42;2.13;;;;;;;;;;5004299;28;20547;-74
2023/10/18 12:56:37;;;;;;;3.58;2.17;;;;;;;;;;5009343;28;20069;-74
2023/10/18 13:04:07;;;;;;;3.53;2.10;;;;;;;;;;5026841;28;20113;-74
2023/10/18 13:06:41;;;;;;;3.60;2.10;;;;;;;;;;5009270;28;20030;-74
2023/10/18 13:09:15;;;;;;;4.75;2.05;;;;;;;;;;5010266;28;20057;-73
2023/10/18 13:14:17;;;;;;;4.85;2.40;;;;;;;;;;5027735;28;20041;-74
2023/10/18 13:16:43;;;;;;;5.43;2.00;;;;;;;;;;5027793;28;20021;-74
2023/10/18 13:19:14;;;;;;;6.50;2.20;;;;;;;;;;5010171;28;20020;-75
2023/10/18 13:21:40;;;;;;;5.32;2.50;;;;;;;;;;5009361;28;20071;-74
2023/10/18 13:24:28;;;;;;;8.20;2.28;;;;;;;;;;5003744;28;20041;-74
2023/10/18 13:27:02;;;;;;;3.03;2.20;;;;;;;;;;5018239;28;20033;-74
2023/10/18 13:31:57;;;;;;;4.40;1.92;;;;;;;;;;5025183;28;20033;-74
2023/10/18 13:34:24;;;;;;;5.78;2.40;;;;;;;;;;5021518;28;20029;-74
2023/10/18 13:36:54;;;;;;;4.97;2.08;;;;;;;;;;5008176;28;20086;-74
2023/10/18 13:39:22;;;;;;;4.78;2.20;;;;;;;;;;5009890;28;20099;-73
2023/10/18 13:41:49;;;;;;;3.58;2.20;;;;;;;;;;5027189;28;20526;-73
2023/10/18 13:44:25;;;;;;;4.05;2.10;;;;;;;;;;5020621;28;20033;-72
2023/10/18 13:46:51;;;;;;;3.63;2.40;;;;;;;;;;4997607;28;20771;-73
2023/10/18 13:49:19;;;;;;;5.20;2.10;;;;;;;;;;5023733;28;20029;-73
2023/10/18 13:51:48;;;;;;;2.92;2.10;;;;;;;;;;5027374;28;20041;-73
2023/10/18 13:54:13;;;;;;;3.63;2.42;;;;;;;;;;5029830;28;20041;-73
2023/10/18 13:56:39;;;;;;;4.30;2.05;;;;;;;;;;5014580;28;20953;-73
2023/10/18 13:59:05;;;;;;;3.50;2.30;;;;;;;;;;5031148;28;20052;-73
2023/10/18 14:01:31;;;;;;;3.80;2.40;;;;;;;;;;5008974;28;20570;-73
2023/10/18 14:04:01;;;;;;;5.43;2.22;;;;;;;;;;5027175;28;20060;-73
2023/10/18 14:06:28;;;;;;;3.17;2.22;;;;;;;;;;5025902;28;20099;-73
2023/10/18 14:08:54;;;;;;;4.82;2.60;;;;;;;;;;5027061;28;20041;-73
2023/10/18 14:11:20;;;;;;;4.93;2.42;;;;;;;;;;5009238;28;20033;-73
2023/10/18 14:13:47;;;;;;;5.00;2.50;;;;;;;;;;5026301;28;20021;-73
2023/10/18 14:16:16;;;;;;;3.60;2.35;;;;;;;;;;5008421;28;20033;-73
2023/10/18 14:18:43;;;;;;;4.03;2.53;;;;;;;;;;5024703;28;20079;-73
2023/10/18 14:21:14;;;;;;;4.47;2.85;;;;;;;;;;5001509;28;20025;-73
2023/10/18 14:23:47;;;;;;;3.35;2.38;;;;;;;;;;5026479;28;20583;-73
2023/10/18 14:26:17;;;;;;;3.90;2.55;;;;;;;;;;5026585;28;20042;-73
2023/10/18 14:28:44;;;;;;;5.22;2.50;;;;;;;;;;5018424;28;20100;-73
2023/10/18 14:31:14;;;;;;;5.47;2.88;;;;;;;;;;5007997;28;20212;-73
2023/10/18 14:33:41;;;;;;;8.23;2.55;;;;;;;;;;5014495;28;20049;-73
2023/10/18 14:36:11;;;;;;;5.78;2.67;;;;;;;;;;5011811;28;20132;-73
2023/10/18 14:38:38;;;;;;;4.72;2.50;;;;;;;;;;5007951;28;20088;-74
2023/10/18 14:41:08;;;;;;;4.13;2.55;;;;;;;;;;5007699;28;20120;-74
2023/10/18 14:43:34;;;;;;;4.18;2.60;;;;;;;;;;5008319;28;20063;-74
2023/10/18 14:46:01;;;;;;;8.38;3.22;;;;;;;;;;5026729;28;20021;-73
2023/10/18 14:48:26;;;;;;;8.00;3.25;;;;;;;;;;5006734;28;20034;-74
2023/10/18 14:50:52;;;;;;;4.53;2.60;;;;;;;;;;5025884;28;20061;-74
2023/10/18 14:53:18;;;;;;;4.28;2.67;;;;;;;;;;5025777;28;20615;-74
2023/10/18 14:55:44;;;;;;;3.75;2.78;;;;;;;;;;5025331;28;20056;-74
2023/10/18 14:58:09;;;;;;;5.93;3.45;;;;;;;;;;5025647;28;20102;-74
2023/10/18 15:00:35;;;;;;;5.18;2.60;;;;;;;;;;5015554;28;20034;-74
2023/10/18 15:03:01;;;;;;;7.85;2.85;;;;;;;;;;5006195;28;20042;-75
2023/10/18 15:05:27;;;;;;;4.50;2.50;;;;;;;;;;5025883;28;20037;-74
2023/10/18 15:07:53;;;;;;;4.10;2.92;;;;;;;;;;5026446;28;20033;-75
2023/10/18 15:10:18;;;;;;;4.50;2.85;;;;;;;;;;5026979;28;20079;-74
2023/10/18 15:12:44;;;;;;;4.65;3.22;;;;;;;;;;5024359;28;20033;-74
2023/10/18 15:15:10;;;;;;;7.03;3.58;;;;;;;;;;5013072;28;20046;-74
2023/10/18 15:17:37;;;;;;;6.32;3.60;;;;;;;;;;5019910;28;20477;-74
2023/10/18 15:20:05;;;;;;;5.85;2.90;;;;;;;;;;5020301;28;20041;-75
2023/10/18 15:22:33;;;;;;;4.97;3.10;;;;;;;;;;5019218;28;20129;-74
2023/10/18 15:25:04;;;;;;;9.48;3.20;;;;;;;;;;5001010;28;20022;-74
2023/10/18 15:27:31;;;;;;;5.53;2.95;;;;;;;;;;5004715;28;20037;-74
2023/10/18 15:29:56;;;;;;;6.22;3.42;;;;;;;;;;5014954;28;20589;-74
2023/10/18 15:32:22;;;;;;;9.98;4.88;;;;;;;;;;5024654;28;20033;-74
2023/10/18 15:34:48;;;;;;;6.53;3.67;;;;;;;;;;5025992;28;20041;-74
2023/10/18 15:37:13;;;;;;;8.18;3.53;;;;;;;;;;5007751;28;20408;-74
2023/10/18 15:39:42;;;;;;;7.63;3.30;;;;;;;;;;5025490;28;20040;-73
2023/10/18 15:42:10;;;;;;;7.20;4.13;;;;;;;;;;5022555;28;20059;-74
2023/10/18 15:44:39;;;;;;;8.98;3.80;;;;;;;;;;5005138;28;20037;-74
2023/10/18 15:47:08;;;;;;;8.68;4.00;;;;;;;;;;5018928;28;20594;-74
2023/10/18 15:49:36;;;;;;;8.82;3.55;;;;;;;;;;5003588;28;20443;-74
2023/10/18 15:52:03;;;;;;;6.57;4.22;;;;;;;;;;5016287;28;20067;-74